createdAt,value
2022-12-05T00:01:44.274Z,4.49
2022-12-05T00:06:47.680Z,4.49
2022-12-05T00:11:50.586Z,4.46
2022-12-05T00:16:53.524Z,4.45
2022-12-05T00:21:57.727Z,4.39
2022-12-05T00:27:00.596Z,4.38
2022-12-05T00:32:03.583Z,4.34
2022-12-05T00:37:06.584Z,4.31
2022-12-05T00:42:09.435Z,4.30
2022-12-05T00:47:12.358Z,4.30
2022-12-05T00:52:15.244Z,4.27
2022-12-05T00:57:18.190Z,4.26
2022-12-05T01:02:21.158Z,4.25
2022-12-05T01:07:24.052Z,4.25
2022-12-05T01:12:28.239Z,4.20
2022-12-05T01:17:31.259Z,4.18
2022-12-05T01:22:34.242Z,4.17
2022-12-05T01:27:37.371Z,4.14
2022-12-05T01:32:40.220Z,4.12
2022-12-05T01:37:43.204Z,4.11
2022-12-05T01:42:46.024Z,4.11
2022-12-05T01:47:48.976Z,4.09
2022-12-05T01:52:51.985Z,4.09
2022-12-05T01:57:57.798Z,4.07
2022-12-05T02:03:08.007Z,4.06
2022-12-05T02:08:13.132Z,4.07
2022-12-05T02:13:59.649Z,4.07
2022-12-05T02:19:32.845Z,4.07
2022-12-05T02:25:01.260Z,4.07
2022-12-05T02:30:10.727Z,4.04
2022-12-05T02:35:18.737Z,4.02
2022-12-05T02:40:43.261Z,4.05
2022-12-05T02:45:53.089Z,4.00
2022-12-05T02:51:00.734Z,3.98
2022-12-05T02:56:05.224Z,3.94
2022-12-05T03:01:08.838Z,3.93
2022-12-05T03:06:33.204Z,3.93
2022-12-05T03:11:47.897Z,3.92
2022-12-05T03:16:55.063Z,3.91
2022-12-05T03:22:15.320Z,3.92
2022-12-05T03:27:51.386Z,3.92
2022-12-05T03:33:08.017Z,3.94
2022-12-05T03:38:18.926Z,3.92
2022-12-05T03:43:46.067Z,3.92
2022-12-05T03:48:48.903Z,3.95
2022-12-05T03:54:13.983Z,3.95
2022-12-05T03:59:34.130Z,3.96
2022-12-05T04:04:49.330Z,3.96
2022-12-05T04:10:00.361Z,3.97
2022-12-05T04:15:22.616Z,3.95
2022-12-05T04:20:59.010Z,3.95
2022-12-05T04:26:23.980Z,3.95
2022-12-05T04:31:39.637Z,3.95
2022-12-05T04:36:55.794Z,3.95
2022-12-05T04:42:04.970Z,3.94
2022-12-05T04:47:12.204Z,3.94
2022-12-05T04:52:15.646Z,3.94
2022-12-05T04:57:26.541Z,3.93
2022-12-05T05:02:40.788Z,3.92
2022-12-05T05:07:54.136Z,3.92
2022-12-05T05:12:57.138Z,3.93
2022-12-05T05:18:00.072Z,3.92
2022-12-05T05:23:02.893Z,3.95
2022-12-05T05:28:05.708Z,3.96
2022-12-05T05:33:08.677Z,3.95
2022-12-05T05:38:11.600Z,3.93
2022-12-05T05:43:14.456Z,3.94
2022-12-05T05:48:17.329Z,3.93
2022-12-05T05:53:20.220Z,3.95
2022-12-05T05:58:23.583Z,3.95
2022-12-05T06:03:27.826Z,3.95
2022-12-05T06:08:33.396Z,3.96
2022-12-05T06:13:37.337Z,3.98
2022-12-05T06:18:40.581Z,3.98
2022-12-05T06:23:43.702Z,4.00
2022-12-05T06:28:47.021Z,4.01
2022-12-05T06:33:50.237Z,4.05
2022-12-05T06:38:53.051Z,4.05
2022-12-05T06:44:01.849Z,4.07
2022-12-05T06:49:05.555Z,4.05
2022-12-05T06:54:08.380Z,4.03
2022-12-05T06:59:11.309Z,4.09
2022-12-05T07:04:24.013Z,4.11
2022-12-05T07:09:46.017Z,4.13
2022-12-05T07:14:49.868Z,4.16
2022-12-05T07:19:53.587Z,4.17
2022-12-05T07:24:56.556Z,4.17
2022-12-05T07:29:59.650Z,4.23
2022-12-05T07:35:02.726Z,4.24
2022-12-05T07:40:06.659Z,4.28
2022-12-05T07:45:10.418Z,4.32
2022-12-05T07:50:15.139Z,4.34
2022-12-05T07:55:18.116Z,4.39
2022-12-05T08:00:22.423Z,4.44
2022-12-05T08:05:25.341Z,4.51
2022-12-05T08:10:28.237Z,4.56
2022-12-05T08:15:35.765Z,4.62
2022-12-05T08:20:38.692Z,4.69
2022-12-05T08:25:41.680Z,4.75
2022-12-05T08:30:44.676Z,4.81
2022-12-05T08:35:47.661Z,4.87
2022-12-05T08:40:50.666Z,4.91
2022-12-05T08:45:54.095Z,4.97
2022-12-05T08:50:57.974Z,5.06
2022-12-05T08:56:06.429Z,5.09
2022-12-05T09:01:13.362Z,5.12
2022-12-05T09:06:16.307Z,5.10
2022-12-05T09:11:25.986Z,5.12
2022-12-05T09:16:37.999Z,5.14
2022-12-05T09:21:42.945Z,5.16
2022-12-05T09:26:46.501Z,5.20
2022-12-05T09:31:51.746Z,5.26
2022-12-05T09:37:10.210Z,5.30
2022-12-05T09:42:43.486Z,5.38
2022-12-05T09:48:12.546Z,5.43
2022-12-05T09:53:37.602Z,5.46
2022-12-05T09:58:48.781Z,5.50
2022-12-05T10:05:00.361Z,5.53
2022-12-05T10:10:28.726Z,5.57
2022-12-05T10:15:53.031Z,5.58
2022-12-05T10:21:38.729Z,5.63
2022-12-05T10:26:48.790Z,5.69
2022-12-05T10:31:57.750Z,5.74
2022-12-05T10:37:20.409Z,5.77
2022-12-05T10:42:31.631Z,5.78
2022-12-05T10:47:35.872Z,5.85
2022-12-05T10:52:38.805Z,5.96
2022-12-05T10:57:41.769Z,6.15
2022-12-05T11:02:50.259Z,6.34
2022-12-05T11:07:53.455Z,6.47
2022-12-05T11:13:00.858Z,6.54
2022-12-05T11:18:30.916Z,6.57
2022-12-05T11:23:33.862Z,6.57
2022-12-05T11:28:38.041Z,6.51
2022-12-05T11:33:41.800Z,6.43
2022-12-05T11:38:44.767Z,6.34
2022-12-05T11:44:14.726Z,6.24
2022-12-05T11:49:55.639Z,6.07
2022-12-05T11:55:12.470Z,5.96
2022-12-05T12:00:50.485Z,5.87
2022-12-05T12:05:56.356Z,5.84
2022-12-05T12:11:14.214Z,5.78
2022-12-05T12:17:01.808Z,5.82
2022-12-05T12:23:01.225Z,5.82
2022-12-05T12:28:22.503Z,5.84
2022-12-05T12:34:16.611Z,5.84
2022-12-05T12:40:03.472Z,5.80
2022-12-05T12:45:47.740Z,5.81
2022-12-05T12:50:54.824Z,5.84
2022-12-05T12:56:36.672Z,5.82
2022-12-05T13:02:12.785Z,5.81
2022-12-05T13:07:23.291Z,5.76
2022-12-05T13:12:32.665Z,5.75
2022-12-05T13:17:36.141Z,5.76
2022-12-05T13:22:39.199Z,5.77
2022-12-05T13:27:59.825Z,5.76
2022-12-05T13:33:10.224Z,5.73
2022-12-05T13:38:59.555Z,5.70
2022-12-05T13:44:12.501Z,5.71
2022-12-05T13:49:53.283Z,5.70
2022-12-05T13:55:14.535Z,5.68
2022-12-05T14:00:17.438Z,5.68
2022-12-05T14:05:25.603Z,5.68
2022-12-05T14:10:28.458Z,5.72
2022-12-05T14:15:39.474Z,5.71
2022-12-05T14:21:10.132Z,5.69
2022-12-05T14:26:39.789Z,5.68
2022-12-05T14:32:10.415Z,5.64
2022-12-05T14:37:16.295Z,5.61
2022-12-05T14:42:36.196Z,5.59
2022-12-05T14:47:39.138Z,5.58
2022-12-05T14:52:42.229Z,5.54
2022-12-05T14:57:49.196Z,5.53
2022-12-05T15:02:55.505Z,5.54
2022-12-05T15:08:00.830Z,5.53
2022-12-05T15:13:18.577Z,5.48
2022-12-05T15:18:45.830Z,5.46
2022-12-05T15:23:59.351Z,5.45
2022-12-05T15:29:08.096Z,5.48
2022-12-05T15:34:54.973Z,5.48
2022-12-05T15:40:08.209Z,5.45
2022-12-05T15:45:14.596Z,5.45
2022-12-05T15:50:53.158Z,5.45
2022-12-05T15:56:05.469Z,5.45
2022-12-05T16:01:25.797Z,5.43
2022-12-05T16:06:55.127Z,5.42
2022-12-05T16:12:17.147Z,5.44
2022-12-05T16:17:21.464Z,5.42
2022-12-05T16:22:28.678Z,5.41
2022-12-05T16:27:39.357Z,5.40
2022-12-05T16:32:45.151Z,5.41
2022-12-05T16:37:48.056Z,5.44
2022-12-05T16:43:06.443Z,5.46
2022-12-05T16:48:24.279Z,5.49
2022-12-05T16:53:35.148Z,5.50
2022-12-05T16:58:56.798Z,5.52
2022-12-05T17:03:59.915Z,5.55
2022-12-05T17:09:02.885Z,5.59
2022-12-05T17:14:07.507Z,5.59
2022-12-05T17:19:14.436Z,5.58
2022-12-05T17:24:18.901Z,5.59
2022-12-05T17:29:21.894Z,5.61
2022-12-05T17:34:24.720Z,5.61
2022-12-05T17:39:28.886Z,5.61
2022-12-05T17:44:31.966Z,5.61
2022-12-05T17:49:34.896Z,5.62
2022-12-05T17:54:37.867Z,5.62
2022-12-05T17:59:40.749Z,5.66
2022-12-05T18:04:43.710Z,5.69
2022-12-05T18:09:46.571Z,5.70
2022-12-05T18:14:49.421Z,5.71
2022-12-05T18:19:52.225Z,5.74
2022-12-05T18:24:57.330Z,5.76
2022-12-05T18:30:00.572Z,5.75
2022-12-05T18:35:08.680Z,5.78
2022-12-05T18:40:15.606Z,5.78
2022-12-05T18:45:18.433Z,5.78
2022-12-05T18:50:21.312Z,5.82
2022-12-05T18:55:44.987Z,5.83
2022-12-05T19:00:47.134Z,5.84
2022-12-05T19:05:50.131Z,5.86
2022-12-05T19:10:53.085Z,5.87
2022-12-05T19:16:03.948Z,5.88
2022-12-05T19:21:07.209Z,5.89
2022-12-05T19:26:10.723Z,5.90
2022-12-05T19:31:23.052Z,5.91
2022-12-05T19:36:30.206Z,5.92
2022-12-05T19:41:33.059Z,5.93
2022-12-05T19:46:36.602Z,5.89
2022-12-05T19:51:39.610Z,5.86
2022-12-05T19:56:42.583Z,5.81
2022-12-05T20:01:45.592Z,5.78
2022-12-05T20:06:50.013Z,5.74
2022-12-05T20:11:55.609Z,5.74
2022-12-05T20:17:00.330Z,5.72
2022-12-05T20:22:03.325Z,5.73
2022-12-05T20:27:07.400Z,5.73
2022-12-05T20:32:10.306Z,5.75
2022-12-05T20:37:13.240Z,5.76
2022-12-05T20:42:16.089Z,5.78
2022-12-05T20:47:19.062Z,5.77
2022-12-05T20:52:21.974Z,5.77
2022-12-05T20:57:24.747Z,5.78
2022-12-05T21:02:27.748Z,5.77
2022-12-05T21:07:30.642Z,5.76
2022-12-05T21:12:33.562Z,5.75
2022-12-05T21:17:36.396Z,5.76
2022-12-05T21:22:39.286Z,5.75
2022-12-05T21:27:42.100Z,5.76
2022-12-05T21:32:45.030Z,5.76
2022-12-05T21:37:47.875Z,5.73
2022-12-05T21:42:50.739Z,5.74
2022-12-05T21:47:53.904Z,5.74
2022-12-05T21:52:56.855Z,5.73
2022-12-05T21:57:59.736Z,5.77
2022-12-05T22:03:03.146Z,5.75
2022-12-05T22:08:06.787Z,5.77
2022-12-05T22:13:09.785Z,5.77
2022-12-05T22:18:12.465Z,5.75
2022-12-05T22:23:17.020Z,5.73
2022-12-05T22:28:20.396Z,5.72
2022-12-05T22:33:24.709Z,5.73
2022-12-05T22:38:32.560Z,5.75
2022-12-05T22:43:37.731Z,5.75
2022-12-05T22:48:40.952Z,5.75
2022-12-05T22:53:44.345Z,5.74
2022-12-05T22:58:47.978Z,5.73
2022-12-05T23:03:57.114Z,5.71
2022-12-05T23:09:01.290Z,5.72
2022-12-05T23:14:06.011Z,5.71
2022-12-05T23:19:08.905Z,5.70
2022-12-05T23:24:12.814Z,5.68
2022-12-05T23:29:15.735Z,5.68
2022-12-05T23:34:18.895Z,5.66
2022-12-05T23:39:21.780Z,5.66
2022-12-05T23:44:24.613Z,5.64
2022-12-05T23:49:27.623Z,5.63
2022-12-05T23:54:30.533Z,5.61
2022-12-05T23:59:33.263Z,5.56
